Time;durP1;ratioP1;P1;durP2;ratioP2;P2;SDS_P1;SDS_P2;PMS_P1;PMS_P2;Temp;Humidity;BMP_temperature;BMP_pressure;BME280_temperature;BME280_humidity;BME280_pressure;Samples;Min_cycle;Max_cycle;Signal;HPM_P1;HPM_P2
2024/03/18 00:00:16;;;;;;;8.80;3.22;;;-1.20;90.40;;;;;;5051772;28;20107;-53
2024/03/18 00:02:43;;;;;;;8.07;2.90;;;-1.40;90.50;;;;;;5057789;28;20021;-52
2024/03/18 00:05:16;;;;;;;5.13;2.67;;;-1.40;91.10;;;;;;5061599;28;20032;-48
2024/03/18 00:07:42;;;;;;;6.72;2.75;;;-1.40;90.80;;;;;;5050130;28;20031;-48
2024/03/18 00:10:09;;;;;;;7.15;2.65;;;-1.50;91.00;;;;;;5045668;28;21063;-49
2024/03/18 00:12:36;;;;;;;8.80;2.97;;;-1.60;91.40;;;;;;5051786;28;20025;-47
2024/03/18 00:15:02;;;;;;;6.43;2.72;;;-1.60;91.80;;;;;;5050861;28;20546;-53
2024/03/18 00:17:28;;;;;;;7.55;3.10;;;-1.70;91.70;;;;;;5045971;28;20040;-51
2024/03/18 00:19:54;;;;;;;5.07;2.22;;;-1.70;91.90;;;;;;5049929;28;20029;-50
2024/03/18 00:22:20;;;;;;;5.90;3.10;;;-1.70;91.70;;;;;;5047220;28;20151;-46
2024/03/18 00:24:46;;;;;;;6.50;2.25;;;-1.70;91.90;;;;;;5045660;28;20402;-48
2024/03/18 00:27:12;;;;;;;6.13;2.78;;;-1.70;92.40;;;;;;5047836;28;20066;-51
2024/03/18 00:29:37;;;;;;;5.10;2.70;;;-1.80;92.30;;;;;;5047601;28;20028;-48
2024/03/18 00:32:03;;;;;;;6.55;3.10;;;-1.80;91.40;;;;;;5046051;28;20025;-52
2024/03/18 00:34:28;;;;;;;6.78;2.95;;;-1.80;91.70;;;;;;5050624;28;20436;-49
2024/03/18 00:36:54;;;;;;;4.55;2.15;;;-1.80;91.80;;;;;;5046208;28;20615;-49
2024/03/18 00:39:19;;;;;;;5.90;2.47;;;-1.80;91.10;;;;;;5037858;28;20055;-53
2024/03/18 00:41:48;;;;;;;3.72;2.38;;;-1.80;91.80;;;;;;5041108;28;20029;-48
2024/03/18 00:44:20;;;;;;;3.92;2.33;;;-1.80;91.40;;;;;;5050917;28;20036;-50
2024/03/18 00:46:46;;;;;;;4.28;2.40;;;-1.90;91.70;;;;;;5046162;28;20392;-48
2024/03/18 00:49:16;;;;;;;5.97;2.58;;;-1.90;91.70;;;;;;5044840;28;20029;-47
2024/03/18 00:51:42;;;;;;;4.05;2.28;;;-1.90;91.80;;;;;;5049252;28;20025;-48
2024/03/18 00:54:09;;;;;;;5.75;2.30;;;-2.00;92.00;;;;;;5048780;28;20024;-49
2024/03/18 00:56:35;;;;;;;6.47;2.38;;;-2.10;92.20;;;;;;5040811;28;20444;-51
2024/03/18 00:59:01;;;;;;;4.65;2.08;;;-2.10;92.60;;;;;;5046143;28;20025;-49
2024/03/18 01:01:27;;;;;;;4.80;2.22;;;-2.20;92.90;;;;;;5043759;28;20074;-49
2024/03/18 01:03:53;;;;;;;4.43;1.95;;;-2.20;93.30;;;;;;5045458;28;20039;-46
2024/03/18 01:06:19;;;;;;;7.70;2.70;;;-2.20;93.50;;;;;;5062031;28;20021;-52
2024/03/18 01:08:45;;;;;;;3.10;1.90;;;-2.30;93.70;;;;;;5049652;28;20056;-50
2024/03/18 01:11:10;;;;;;;3.92;2.17;;;-2.30;93.40;;;;;;5047605;28;20072;-46
2024/03/18 01:13:36;;;;;;;3.95;2.42;;;-2.40;93.30;;;;;;5050418;28;20115;-53
2024/03/18 01:16:03;;;;;;;5.45;2.45;;;-2.40;93.30;;;;;;5046948;28;20507;-50
2024/03/18 01:18:28;;;;;;;6.32;2.10;;;-2.40;93.40;;;;;;5049145;28;20025;-51
2024/03/18 01:20:55;;;;;;;6.43;2.72;;;-2.40;93.30;;;;;;5039787;28;20090;-51
2024/03/18 01:23:22;;;;;;;3.25;1.98;;;-2.40;93.60;;;;;;5044039;28;20111;-49
2024/03/18 01:25:47;;;;;;;5.97;2.60;;;-2.50;93.80;;;;;;5047539;28;20032;-50
2024/03/18 01:28:13;;;;;;;4.13;2.03;;;-2.50;94.10;;;;;;5050257;28;20579;-50
2024/03/18 01:30:41;;;;;;;4.68;1.95;;;-2.50;94.40;;;;;;5047956;28;20679;-48
2024/03/18 01:33:07;;;;;;;5.35;2.25;;;-2.60;94.60;;;;;;5044223;28;20033;-48
2024/03/18 01:35:33;;;;;;;6.55;2.25;;;-2.60;94.70;;;;;;5048399;28;20455;-51
2024/03/18 01:37:59;;;;;;;4.43;1.98;;;-2.70;94.80;;;;;;5045768;28;20029;-50
2024/03/18 01:40:25;;;;;;;4.07;2.00;;;-2.70;95.10;;;;;;5043030;28;20071;-49
2024/03/18 01:42:51;;;;;;;4.47;1.73;;;-2.70;94.90;;;;;;5043767;28;20036;-49
2024/03/18 01:45:22;;;;;;;3.95;1.65;;;-2.70;95.00;;;;;;5044207;28;20035;-48
2024/03/18 01:47:48;;;;;;;4.43;2.08;;;-2.70;95.00;;;;;;5044530;28;20082;-52
2024/03/18 01:50:14;;;;;;;4.20;2.22;;;-2.70;94.90;;;;;;5043606;28;20025;-51
2024/03/18 01:52:39;;;;;;;3.63;1.70;;;-2.70;95.00;;;;;;5044153;28;20437;-47
2024/03/18 01:55:05;;;;;;;3.85;2.03;;;-2.80;94.80;;;;;;5047795;28;20067;-52
2024/03/18 01:57:30;;;;;;;3.45;1.75;;;-2.80;95.00;;;;;;5051897;28;20401;-53
2024/03/18 01:59:58;;;;;;;3.05;1.80;;;-2.80;95.20;;;;;;5051892;28;20411;-47
2024/03/18 02:02:23;;;;;;;5.70;2.00;;;-2.80;95.40;;;;;;5039351;28;20045;-50
2024/03/18 02:04:49;;;;;;;5.50;1.60;;;-2.80;95.50;;;;;;5045573;28;20064;-49
2024/03/18 02:07:24;;;;;;;3.67;1.80;;;-2.80;96.40;;;;;;5047731;28;20063;-49
2024/03/18 02:09:49;;;;;;;4.53;1.58;;;-2.70;96.10;;;;;;5042125;28;20134;-51
2024/03/18 02:12:16;;;;;;;2.92;1.48;;;-2.70;96.10;;;;;;5046366;28;20726;-50
2024/03/18 02:14:44;;;;;;;3.10;1.95;;;-2.70;96.10;;;;;;5044402;28;20167;-50
2024/03/18 02:17:09;;;;;;;2.15;1.40;;;-2.70;96.00;;;;;;5045700;28;20032;-51
2024/03/18 02:19:35;;;;;;;3.38;1.80;;;-2.70;96.30;;;;;;5046738;28;20029;-51
2024/03/18 02:22:03;;;;;;;3.97;2.10;;;-2.70;96.00;;;;;;5046015;28;20029;-49
2024/03/18 02:24:28;;;;;;;4.95;1.77;;;-2.60;96.20;;;;;;5049246;28;20033;-50
2024/03/18 02:26:54;;;;;;;3.80;1.80;;;-2.70;96.20;;;;;;5052133;28;20028;-52
2024/03/18 02:29:19;;;;;;;4.75;2.40;;;-2.70;96.40;;;;;;5043809;28;20100;-50
2024/03/18 02:31:45;;;;;;;3.45;1.80;;;-2.70;96.20;;;;;;5047360;28;20033;-50
2024/03/18 02:34:10;;;;;;;2.80;1.65;;;-2.70;96.20;;;;;;5043508;28;20053;-49
2024/03/18 02:36:36;;;;;;;2.60;1.48;;;-2.80;96.20;;;;;;5043452;28;20025;-50
2024/03/18 02:39:01;;;;;;;3.83;1.42;;;-2.90;96.30;;;;;;5042496;28;20025;-48
2024/03/18 02:41:27;;;;;;;5.03;2.03;;;-2.90;96.00;;;;;;5049027;28;20442;-54
2024/03/18 02:43:52;;;;;;;3.85;2.17;;;-3.00;96.30;;;;;;5043431;28;20075;-51
2024/03/18 02:46:18;;;;;;;3.72;1.60;;;-3.00;96.50;;;;;;5052985;28;20024;-53
2024/03/18 02:48:43;;;;;;;3.08;1.60;;;-3.00;96.30;;;;;;5053539;28;20115;-52
2024/03/18 02:51:09;;;;;;;3.83;1.80;;;-3.00;96.30;;;;;;5051418;28;20090;-51
2024/03/18 02:53:34;;;;;;;2.88;1.95;;;-3.10;96.50;;;;;;5047304;28;20025;-50
2024/03/18 02:56:00;;;;;;;5.13;1.88;;;-3.10;96.90;;;;;;5056977;28;20052;-51
2024/03/18 02:58:25;;;;;;;3.05;1.95;;;-3.10;97.10;;;;;;5046976;28;20037;-49
2024/03/18 03:00:53;;;;;;;6.13;2.38;;;-3.10;97.10;;;;;;5042516;28;20424;-52
2024/03/18 03:03:19;;;;;;;4.88;2.28;;;-3.10;97.70;;;;;;5048382;28;20541;-51
2024/03/18 03:05:45;;;;;;;4.18;2.22;;;-3.10;96.80;;;;;;5053656;28;20103;-50
2024/03/18 03:08:11;;;;;;;3.63;1.92;;;-3.10;96.30;;;;;;5047915;28;20052;-50
2024/03/18 03:10:39;;;;;;;5.60;2.25;;;-3.10;96.80;;;;;;5048624;28;20020;-49
2024/03/18 03:13:04;;;;;;;2.80;1.75;;;-3.10;97.30;;;;;;5044896;28;20036;-49
2024/03/18 03:15:35;;;;;;;3.78;1.67;;;-3.10;97.20;;;;;;5046509;28;20029;-47
2024/03/18 03:18:00;;;;;;;3.78;2.20;;;-3.10;97.90;;;;;;5050812;28;20029;-48
2024/03/18 03:20:30;;;;;;;3.97;2.22;;;-3.10;98.30;;;;;;5052442;28;20025;-50
2024/03/18 03:22:59;;;;;;;4.10;2.25;;;-3.00;98.60;;;;;;5044428;28;20017;-50
2024/03/18 03:25:26;;;;;;;3.45;2.10;;;-3.00;98.90;;;;;;5044362;28;20029;-50
2024/03/18 03:27:56;;;;;;;3.35;1.90;;;-3.00;98.10;;;;;;5048918;28;20029;-46
2024/03/18 03:30:21;;;;;;;5.32;2.47;;;-3.00;98.40;;;;;;5051748;28;20033;-53
2024/03/18 03:32:47;;;;;;;8.30;3.03;;;-3.00;99.10;;;;;;5046695;28;20623;-51
2024/03/18 03:35:12;;;;;;;5.00;2.58;;;-2.90;98.90;;;;;;5050822;28;20044;-50
2024/03/18 03:37:38;;;;;;;8.73;3.60;;;-2.90;98.20;;;;;;5053962;28;20119;-47
2024/03/18 03:40:04;;;;;;;4.00;2.38;;;-2.80;98.10;;;;;;5049848;28;20037;-49
2024/03/18 03:42:29;;;;;;;5.65;3.30;;;-2.70;98.20;;;;;;5046470;28;20095;-52
2024/03/18 03:44:55;;;;;;;6.10;3.70;;;-2.70;98.00;;;;;;5046797;28;20388;-48
2024/03/18 03:47:20;;;;;;;5.95;2.60;;;-2.60;97.90;;;;;;5053605;28;20071;-48
2024/03/18 03:49:46;;;;;;;7.57;3.13;;;-2.60;98.70;;;;;;5054794;28;20052;-52
2024/03/18 03:52:12;;;;;;;6.20;2.83;;;-2.50;99.40;;;;;;5046247;28;20033;-48
2024/03/18 03:54:37;;;;;;;3.65;2.60;;;-2.40;99.70;;;;;;5049950;28;20078;-48
2024/03/18 03:57:03;;;;;;;4.78;2.83;;;-2.50;99.10;;;;;;5045730;28;20695;-51
2024/03/18 03:59:28;;;;;;;4.32;2.45;;;-2.40;99.30;;;;;;5045958;28;20109;-50
2024/03/18 04:01:54;;;;;;;6.80;2.45;;;-2.40;99.30;;;;;;5043417;28;20155;-51
2024/03/18 04:04:20;;;;;;;6.40;2.60;;;-2.40;99.50;;;;;;5047097;28;20028;-48
2024/03/18 04:06:45;;;;;;;4.72;2.35;;;-2.40;99.20;;;;;;5045324;28;20615;-50
2024/03/18 04:09:11;;;;;;;3.20;2.03;;;-2.40;99.30;;;;;;5062051;28;20439;-47
2024/03/18 04:11:37;;;;;;;5.25;3.17;;;-2.40;99.90;;;;;;5045705;28;20029;-51
2024/03/18 04:14:03;;;;;;;3.25;2.20;;;-2.40;99.60;;;;;;5041560;28;20091;-51
2024/03/18 04:16:29;;;;;;;5.30;2.50;;;-2.40;99.50;;;;;;5043168;28;20037;-49
2024/03/18 04:18:54;;;;;;;3.63;2.15;;;-2.40;99.50;;;;;;5038778;28;20033;-53
2024/03/18 04:21:20;;;;;;;3.85;2.25;;;-2.40;99.40;;;;;;5048690;28;20039;-50
2024/03/18 04:23:46;;;;;;;4.40;2.38;;;-2.40;99.80;;;;;;5046555;28;20449;-48
2024/03/18 04:26:12;;;;;;;6.47;2.83;;;-2.40;99.90;;;;;;5047680;28;20143;-51
2024/03/18 04:28:37;;;;;;;3.65;2.13;;;-2.40;99.90;;;;;;5046736;28;20052;-53
2024/03/18 04:31:07;;;;;;;2.45;1.88;;;-2.40;99.90;;;;;;5045733;28;20017;-45
2024/03/18 04:33:34;;;;;;;4.30;2.30;;;-2.40;99.90;;;;;;5048867;28;20048;-43
2024/03/18 04:36:00;;;;;;;5.45;2.80;;;-2.40;99.90;;;;;;5051093;28;20048;-43
2024/03/18 04:38:26;;;;;;;2.38;2.10;;;-2.40;99.70;;;;;;5049157;28;20017;-41
2024/03/18 04:40:51;;;;;;;3.15;2.17;;;-2.40;99.50;;;;;;5038772;28;20430;-46
2024/03/18 04:43:17;;;;;;;5.07;2.38;;;-2.40;99.90;;;;;;5045738;28;20061;-43
2024/03/18 04:45:43;;;;;;;4.80;2.08;;;-2.50;99.90;;;;;;5049567;28;20374;-43
2024/03/18 04:48:10;;;;;;;3.80;2.45;;;-2.50;99.90;;;;;;5041383;28;20037;-43
2024/03/18 04:50:36;;;;;;;3.63;2.00;;;-2.50;99.90;;;;;;5052531;28;20108;-44
2024/03/18 04:53:01;;;;;;;3.33;1.90;;;-2.50;99.90;;;;;;5047212;28;20104;-43
2024/03/18 04:55:27;;;;;;;3.60;2.03;;;-2.60;99.90;;;;;;5048490;28;20673;-43
2024/03/18 04:57:55;;;;;;;4.72;2.10;;;-2.60;99.90;;;;;;5045910;28;20029;-44
2024/03/18 05:00:24;;;;;;;2.95;2.50;;;-2.70;99.90;;;;;;5049501;28;20041;-45
2024/03/18 05:02:51;;;;;;;2.90;2.10;;;-2.70;99.90;;;;;;5049311;28;20679;-44
2024/03/18 05:05:17;;;;;;;4.75;2.20;;;-2.70;99.90;;;;;;5044836;28;20455;-44
2024/03/18 05:07:43;;;;;;;3.30;2.47;;;-2.70;99.90;;;;;;5045280;28;20074;-43
2024/03/18 05:10:10;;;;;;;5.03;1.90;;;-2.70;99.90;;;;;;5046576;28;20041;-44
2024/03/18 05:12:36;;;;;;;2.80;2.10;;;-2.80;99.90;;;;;;5042795;28;20489;-43
2024/03/18 05:15:02;;;;;;;3.85;1.85;;;-2.80;99.90;;;;;;5048870;28;20028;-43
2024/03/18 05:17:28;;;;;;;3.03;1.80;;;-2.80;99.90;;;;;;5046801;28;20397;-43
2024/03/18 05:19:55;;;;;;;2.20;1.60;;;-2.80;99.90;;;;;;5042768;28;20024;-43
2024/03/18 05:22:21;;;;;;;3.72;1.63;;;-2.80;99.90;;;;;;5040628;28;20013;-43
2024/03/18 05:24:47;;;;;;;5.65;2.50;;;-2.80;99.90;;;;;;5040671;28;20037;-43
2024/03/18 05:27:23;;;;;;;3.17;2.05;;;-2.80;99.90;;;;;;5042652;28;20020;-43
2024/03/18 05:29:49;;;;;;;3.92;2.10;;;-2.70;99.90;;;;;;5039316;28;20130;-44
2024/03/18 05:32:16;;;;;;;5.18;2.10;;;-2.70;99.90;;;;;;5042346;28;20029;-45
2024/03/18 05:34:44;;;;;;;3.17;1.90;;;-2.80;99.90;;;;;;5040268;28;20429;-46
2024/03/18 05:37:10;;;;;;;3.00;2.03;;;-2.80;99.90;;;;;;5040274;28;20037;-45
2024/03/18 05:39:39;;;;;;;2.90;1.95;;;-2.80;99.90;;;;;;5047489;28;20045;-44
2024/03/18 05:42:06;;;;;;;3.58;2.40;;;-2.70;99.90;;;;;;5044256;28;20029;-43
2024/03/18 05:44:32;;;;;;;3.15;2.25;;;-2.70;99.90;;;;;;5044274;28;20051;-43
2024/03/18 05:46:59;;;;;;;3.17;2.30;;;-2.60;99.90;;;;;;5052569;28;20028;-43
2024/03/18 05:49:24;;;;;;;5.28;2.28;;;-2.50;99.90;;;;;;5040542;28;20086;-43
2024/03/18 05:51:52;;;;;;;4.93;2.30;;;-2.40;99.90;;;;;;5041322;28;20040;-44
2024/03/18 05:54:18;;;;;;;6.03;1.80;;;-2.30;99.90;;;;;;5051374;28;20043;-43
2024/03/18 05:56:43;;;;;;;3.33;2.35;;;-2.00;99.90;;;;;;5047202;28;20040;-43
2024/03/18 05:59:12;;;;;;;5.22;2.83;;;-1.90;99.90;;;;;;5038925;28;20376;-43
2024/03/18 06:01:39;;;;;;;4.90;2.05;;;-1.30;99.90;;;;;;5041267;28;20017;-43
2024/03/18 06:04:05;;;;;;;4.15;2.50;;;-0.30;99.90;;;;;;5041904;28;20112;-43
2024/03/18 06:06:32;;;;;;;3.92;2.38;;;0.60;98.50;;;;;;5044194;28;20035;-43
2024/03/18 06:08:58;;;;;;;5.07;2.95;;;1.40;96.20;;;;;;5049350;28;20071;-43
2024/03/18 06:11:25;;;;;;;3.83;2.53;;;2.20;94.80;;;;;;5055003;28;20049;-43
2024/03/18 06:13:51;;;;;;;4.10;2.60;;;2.90;93.10;;;;;;5048869;28;20012;-44
2024/03/18 06:16:16;;;;;;;3.78;2.00;;;3.50;92.00;;;;;;5047245;28;20059;-43
2024/03/18 06:18:42;;;;;;;5.78;2.17;;;4.20;90.00;;;;;;5038092;28;20029;-44
2024/03/18 06:21:16;;;;;;;2.75;2.00;;;4.80;89.20;;;;;;5038072;28;20025;-44
2024/03/18 06:23:51;;;;;;;5.75;2.10;;;5.40;90.00;;;;;;5041984;28;20434;-43
2024/03/18 06:26:17;;;;;;;3.08;1.88;;;5.80;87.20;;;;;;5042390;28;20052;-43
2024/03/18 06:28:43;;;;;;;3.08;1.98;;;6.30;85.70;;;;;;5039020;28;20186;-43
2024/03/18 06:31:10;;;;;;;3.60;1.98;;;6.70;86.30;;;;;;5039173;28;20103;-43
2024/03/18 06:33:35;;;;;;;3.17;2.10;;;6.90;82.30;;;;;;5039242;28;20017;-44
2024/03/18 06:36:08;;;;;;;5.82;2.42;;;7.20;81.90;;;;;;5040800;28;20032;-43
2024/03/18 06:38:34;;;;;;;6.72;1.63;;;7.30;76.70;;;;;;5043598;28;20017;-43
2024/03/18 06:41:00;;;;;;;4.28;2.13;;;7.60;76.60;;;;;;5044976;28;20032;-43
2024/03/18 06:43:25;;;;;;;5.97;1.83;;;7.80;74.20;;;;;;5038929;28;20055;-45
2024/03/18 06:45:51;;;;;;;2.85;1.90;;;8.30;76.10;;;;;;5047155;28;20029;-43
2024/03/18 06:48:16;;;;;;;2.47;2.10;;;8.50;71.40;;;;;;5044219;28;20025;-44
2024/03/18 06:50:42;;;;;;;4.57;1.80;;;8.50;66.70;;;;;;5047655;28;20101;-44
2024/03/18 06:53:07;;;;;;;2.78;1.70;;;8.50;62.90;;;;;;5044927;28;20079;-44
2024/03/18 06:55:34;;;;;;;3.35;1.73;;;8.60;61.20;;;;;;5051322;28;20104;-43
2024/03/18 06:58:01;;;;;;;3.63;2.00;;;8.70;60.60;;;;;;5050025;28;20032;-44
2024/03/18 07:00:27;;;;;;;3.40;1.80;;;8.90;59.60;;;;;;5043830;28;20025;-43
2024/03/18 07:02:52;;;;;;;1.90;1.42;;;9.00;57.40;;;;;;5051562;28;20044;-43
2024/03/18 07:05:21;;;;;;;2.42;1.58;;;9.10;54.90;;;;;;5043227;28;20218;-43
2024/03/18 07:07:48;;;;;;;3.90;1.50;;;9.20;54.00;;;;;;5038747;28;20033;-43
2024/03/18 07:10:13;;;;;;;2.63;1.33;;;9.50;53.30;;;;;;5040692;28;20045;-44
2024/03/18 07:12:39;;;;;;;6.47;1.75;;;9.50;51.40;;;;;;5040507;28;20397;-43
2024/03/18 07:15:07;;;;;;;3.63;1.80;;;9.50;49.50;;;;;;5038835;28;20274;-43
2024/03/18 07:17:33;;;;;;;3.05;1.60;;;9.40;47.90;;;;;;5047181;28;20029;-44
2024/03/18 07:19:58;;;;;;;5.18;1.83;;;9.50;46.90;;;;;;5038834;28;20120;-44
2024/03/18 07:22:25;;;;;;;3.17;1.60;;;9.60;47.00;;;;;;5038549;28;20099;-44
2024/03/18 07:24:51;;;;;;;3.22;1.60;;;9.60;44.30;;;;;;5040854;28;20090;-43
2024/03/18 07:27:17;;;;;;;3.33;1.88;;;9.70;43.30;;;;;;5044135;28;20025;-41
2024/03/18 07:29:42;;;;;;;4.03;1.33;;;9.80;42.90;;;;;;5042064;28;20127;-41
2024/03/18 07:32:08;;;;;;;3.83;1.83;;;9.80;43.10;;;;;;5053209;28;20535;-41
2024/03/18 07:34:35;;;;;;;2.40;1.30;;;9.80;39.70;;;;;;5053043;28;20090;-41
2024/03/18 07:37:00;;;;;;;3.65;1.48;;;9.80;40.80;;;;;;5048316;28;20485;-41
2024/03/18 07:39:26;;;;;;;3.10;1.10;;;9.90;41.30;;;;;;5038543;28;20029;-41
2024/03/18 07:41:52;;;;;;;2.60;1.77;;;10.00;40.30;;;;;;5043901;28;20025;-43
2024/03/18 07:44:19;;;;;;;1.58;0.95;;;10.00;39.70;;;;;;5050056;28;20029;-41
2024/03/18 07:46:45;;;;;;;2.15;1.17;;;9.90;39.40;;;;;;5046179;28;20401;-43
2024/03/18 07:49:10;;;;;;;2.97;1.00;;;9.70;36.90;;;;;;5041619;28;20025;-43
2024/03/18 07:51:36;;;;;;;2.38;0.98;;;9.50;37.00;;;;;;5045741;28;20021;-42
2024/03/18 07:54:01;;;;;;;1.77;0.93;;;9.90;38.50;;;;;;5045843;28;20033;-41
2024/03/18 07:56:27;;;;;;;1.70;1.00;;;10.10;37.70;;;;;;5041653;28;20086;-41
2024/03/18 07:58:52;;;;;;;1.77;1.20;;;10.30;37.70;;;;;;5043320;28;20073;-41
2024/03/18 08:01:18;;;;;;;3.58;1.65;;;10.40;36.60;;;;;;5041485;28;20033;-41
2024/03/18 08:03:44;;;;;;;1.40;1.00;;;10.40;34.90;;;;;;5047914;28;20040;-41
2024/03/18 08:06:10;;;;;;;2.13;1.10;;;10.60;35.60;;;;;;5051827;28;20400;-41
2024/03/18 08:08:36;;;;;;;2.45;1.02;;;10.70;35.00;;;;;;5045311;28;20449;-41
2024/03/18 08:11:01;;;;;;;1.92;0.80;;;10.60;33.00;;;;;;5049839;28;20127;-41
2024/03/18 08:13:27;;;;;;;2.10;0.82;;;10.40;30.40;;;;;;5042959;28;20131;-41
2024/03/18 08:15:52;;;;;;;4.28;1.30;;;10.20;30.10;;;;;;5049524;28;20045;-41
2024/03/18 08:18:18;;;;;;;1.25;0.70;;;10.00;30.80;;;;;;5045350;28;20321;-41
2024/03/18 08:20:43;;;;;;;1.15;0.80;;;10.00;31.90;;;;;;5041534;28;20032;-42
2024/03/18 08:23:09;;;;;;;1.63;0.93;;;10.10;30.90;;;;;;5045096;28;20032;-41
2024/03/18 08:25:34;;;;;;;1.30;1.00;;;10.00;29.70;;;;;;5049626;28;20025;-40
2024/03/18 08:28:00;;;;;;;1.50;1.23;;;9.90;29.80;;;;;;5047254;28;20025;-41
2024/03/18 08:30:26;;;;;;;1.15;1.05;;;10.00;31.40;;;;;;5049367;28;20067;-41
2024/03/18 08:32:51;;;;;;;1.70;0.75;;;10.30;32.10;;;;;;5045287;28;20427;-41
2024/03/18 08:35:17;;;;;;;1.77;0.90;;;10.10;30.10;;;;;;5044900;28;20025;-41
2024/03/18 08:37:43;;;;;;;1.23;0.77;;;10.30;30.90;;;;;;5045233;28;20099;-41
2024/03/18 08:40:09;;;;;;;1.80;0.90;;;10.40;30.50;;;;;;5043343;28;20489;-41
2024/03/18 08:42:38;;;;;;;1.83;0.65;;;10.50;31.40;;;;;;5046483;28;20091;-41
2024/03/18 08:45:04;;;;;;;2.63;0.88;;;10.70;29.70;;;;;;5041137;28;20033;-42
2024/03/18 08:47:30;;;;;;;1.25;0.80;;;10.70;29.30;;;;;;5049057;28;20039;-41
2024/03/18 08:49:55;;;;;;;1.33;0.80;;;10.90;30.60;;;;;;5047317;28;20116;-41
2024/03/18 08:52:20;;;;;;;1.17;0.70;;;11.00;30.60;;;;;;5046802;28;20029;-42
2024/03/18 08:54:47;;;;;;;1.15;0.80;;;11.10;30.00;;;;;;5044749;28;20065;-41
2024/03/18 08:57:12;;;;;;;1.58;0.90;;;11.00;28.70;;;;;;5046648;28;20020;-41
2024/03/18 08:59:38;;;;;;;2.33;0.70;;;10.80;26.80;;;;;;5044628;28;20523;-41
2024/03/18 09:02:04;;;;;;;1.65;0.80;;;10.60;27.50;;;;;;5044646;28;20039;-41
2024/03/18 09:04:30;;;;;;;3.50;0.88;;;10.30;27.90;;;;;;5047084;28;20033;-41
2024/03/18 09:06:55;;;;;;;1.88;0.85;;;10.30;27.90;;;;;;5046547;28;20514;-41
2024/03/18 09:09:21;;;;;;;1.65;0.63;;;10.20;27.40;;;;;;5048305;28;20127;-41
2024/03/18 09:11:46;;;;;;;0.88;0.50;;;10.10;27.60;;;;;;5044899;28;20107;-42
2024/03/18 09:14:12;;;;;;;0.70;0.50;;;10.00;26.80;;;;;;5049024;28;20468;-42
2024/03/18 09:16:38;;;;;;;1.88;0.65;;;9.90;26.60;;;;;;5045372;28;20161;-44
2024/03/18 09:19:03;;;;;;;1.48;0.88;;;9.90;27.60;;;;;;5054506;28;20111;-41
2024/03/18 09:21:29;;;;;;;1.42;0.70;;;9.90;27.40;;;;;;5051883;28;20036;-42
2024/03/18 09:23:54;;;;;;;1.88;0.85;;;9.90;27.10;;;;;;5047282;28;20034;-41
2024/03/18 09:26:20;;;;;;;3.00;1.27;;;9.90;26.50;;;;;;5044374;28;20220;-42
2024/03/18 09:28:46;;;;;;;3.10;0.90;;;9.90;26.50;;;;;;5045676;28;20488;-41
2024/03/18 09:31:11;;;;;;;2.97;0.88;;;9.80;26.60;;;;;;5048434;28;20046;-41
2024/03/18 09:33:37;;;;;;;0.98;0.63;;;9.60;26.40;;;;;;5044046;28;20104;-41
2024/03/18 09:36:03;;;;;;;1.35;0.73;;;9.60;27.10;;;;;;5048171;28;20098;-43
2024/03/18 09:38:29;;;;;;;1.60;0.93;;;9.80;27.30;;;;;;5041636;28;20017;-40
2024/03/18 09:41:06;;;;;;;1.92;0.93;;;9.90;27.60;;;;;;5048301;28;20036;-41
2024/03/18 09:43:33;;;;;;;0.77;0.63;;;10.00;26.90;;;;;;5043961;28;20017;-42
2024/03/18 09:46:01;;;;;;;1.73;0.82;;;9.80;26.30;;;;;;5043816;28;20051;-42
2024/03/18 09:48:28;;;;;;;2.45;0.80;;;9.50;26.80;;;;;;5047709;28;20610;-41
2024/03/18 09:50:55;;;;;;;1.13;0.60;;;9.50;26.30;;;;;;5053909;28;20060;-41
2024/03/18 09:53:21;;;;;;;0.80;0.73;;;9.30;26.60;;;;;;5044037;28;20036;-41
2024/03/18 09:55:47;;;;;;;1.35;0.82;;;9.30;27.50;;;;;;5045860;28;20037;-41
2024/03/18 09:58:15;;;;;;;3.00;0.88;;;9.30;27.70;;;;;;5045370;28;20523;-42
2024/03/18 10:00:41;;;;;;;1.05;0.82;;;9.20;27.10;;;;;;5043600;28;20030;-41
2024/03/18 10:03:18;;;;;;;1.13;0.63;;;9.00;27.70;;;;;;5044699;28;20028;-41
2024/03/18 10:05:45;;;;;;;1.42;0.85;;;8.90;28.40;;;;;;5054446;28;20032;-41
2024/03/18 10:08:15;;;;;;;1.35;1.02;;;9.20;28.70;;;;;;5046300;28;20043;-41
2024/03/18 10:10:41;;;;;;;1.40;0.70;;;9.30;28.40;;;;;;5048219;28;20043;-41
2024/03/18 10:13:09;;;;;;;0.70;0.60;;;9.30;28.10;;;;;;5043510;28;20025;-41
2024/03/18 10:15:37;;;;;;;1.52;0.77;;;9.30;27.80;;;;;;5044009;28;20086;-42
2024/03/18 10:18:04;;;;;;;0.93;0.68;;;9.20;27.60;;;;;;5049284;28;20220;-41
2024/03/18 10:20:29;;;;;;;1.02;0.90;;;9.10;27.80;;;;;;5064748;28;20071;-41
2024/03/18 10:22:55;;;;;;;0.90;0.50;;;9.10;28.20;;;;;;5043524;28;20041;-41
2024/03/18 10:25:24;;;;;;;1.42;0.55;;;9.20;29.10;;;;;;5041569;28;20069;-41
2024/03/18 10:27:49;;;;;;;1.90;0.82;;;9.20;28.10;;;;;;5050598;28;20025;-41
2024/03/18 10:30:16;;;;;;;2.45;0.90;;;8.80;27.60;;;;;;5043295;28;20163;-41
2024/03/18 10:32:43;;;;;;;1.08;0.60;;;8.70;26.60;;;;;;5043585;28;20077;-42
2024/03/18 10:35:20;;;;;;;1.27;0.80;;;8.50;26.80;;;;;;5052798;28;20424;-44
2024/03/18 10:37:54;;;;;;;1.52;1.00;;;8.20;26.90;;;;;;5060454;28;20020;-41
2024/03/18 10:40:30;;;;;;;2.08;0.70;;;8.00;27.60;;;;;;5040385;28;20043;-43
2024/03/18 10:42:59;;;;;;;2.65;0.80;;;7.70;27.20;;;;;;5046087;28;20548;-45
2024/03/18 10:45:27;;;;;;;0.98;0.77;;;7.50;26.90;;;;;;5043422;28;20033;-43
2024/03/18 10:47:54;;;;;;;2.40;1.10;;;7.30;27.00;;;;;;5043076;28;20029;-44
2024/03/18 10:50:22;;;;;;;2.97;1.30;;;7.10;27.10;;;;;;5047465;28;20400;-43
2024/03/18 10:52:50;;;;;;;2.40;0.98;;;6.90;26.90;;;;;;5043496;28;20025;-43
2024/03/18 10:55:18;;;;;;;0.80;0.70;;;6.80;27.80;;;;;;5042233;28;20370;-43
2024/03/18 10:57:49;;;;;;;3.30;0.90;;;6.90;27.30;;;;;;5048760;28;20025;-43
2024/03/18 11:00:18;;;;;;;1.20;0.80;;;6.80;27.90;;;;;;5042855;28;20079;-44
2024/03/18 11:03:11;;;;;;;1.17;0.93;;;6.60;28.00;;;;;;5050824;28;20033;-43
2024/03/18 11:05:37;;;;;;;0.88;0.70;;;6.50;27.60;;;;;;5046834;28;20025;-43
2024/03/18 11:08:06;;;;;;;2.70;0.68;;;6.30;27.70;;;;;;5042467;28;20155;-44
2024/03/18 11:10:35;;;;;;;2.40;0.95;;;6.20;28.10;;;;;;5042767;28;20074;-44
2024/03/18 11:13:11;;;;;;;2.65;0.75;;;6.00;27.80;;;;;;5052343;28;20177;-45
2024/03/18 11:15:55;;;;;;;2.38;1.35;;;6.00;28.40;;;;;;5043550;28;20137;-43
2024/03/18 11:18:25;;;;;;;2.95;1.83;;;6.00;30.00;;;;;;5039421;28;20556;-47
2024/03/18 11:20:51;;;;;;;2.97;1.15;;;6.00;29.80;;;;;;5047104;28;20546;-43
2024/03/18 11:23:19;;;;;;;3.85;1.65;;;6.10;30.60;;;;;;5044760;28;20029;-43
2024/03/18 11:25:52;;;;;;;3.88;2.55;;;6.20;30.70;;;;;;5062680;28;20875;-44
2024/03/18 11:28:17;;;;;;;2.13;1.35;;;6.30;30.70;;;;;;5049313;28;20115;-44
2024/03/18 11:30:47;;;;;;;2.17;1.05;;;6.30;30.20;;;;;;5047311;28;20108;-43
2024/03/18 11:33:13;;;;;;;5.03;1.10;;;6.20;30.30;;;;;;5046248;28;20028;-43
2024/03/18 11:35:41;;;;;;;2.08;1.00;;;6.20;30.60;;;;;;5048340;28;20489;-43
2024/03/18 11:38:12;;;;;;;2.20;1.30;;;6.30;30.80;;;;;;5048015;28;20040;-44
2024/03/18 11:40:38;;;;;;;2.53;1.33;;;6.30;31.50;;;;;;5036994;28;20399;-44
2024/03/18 11:43:04;;;;;;;2.53;1.30;;;6.40;31.60;;;;;;5041429;28;20029;-43
2024/03/18 11:45:30;;;;;;;1.73;0.90;;;6.40;31.10;;;;;;5049888;28;20040;-44
2024/03/18 11:48:05;;;;;;;4.10;1.40;;;6.30;31.50;;;;;;5044153;28;20536;-43
2024/03/18 11:50:31;;;;;;;5.10;0.70;;;6.30;30.90;;;;;;5047267;28;20024;-44
2024/03/18 11:52:58;;;;;;;2.42;0.90;;;6.20;31.00;;;;;;5051993;28;20317;-43
2024/03/18 11:55:25;;;;;;;1.85;1.13;;;6.20;31.00;;;;;;5062402;28;20551;-45
2024/03/18 11:57:50;;;;;;;1.13;0.90;;;6.20;30.60;;;;;;5052904;28;20028;-43
2024/03/18 12:00:16;;;;;;;1.50;0.85;;;6.20;30.30;;;;;;5051079;28;20468;-44
2024/03/18 12:02:42;;;;;;;2.08;0.93;;;6.10;30.50;;;;;;5046949;28;20023;-45
2024/03/18 12:05:09;;;;;;;1.65;0.90;;;6.20;30.80;;;;;;5048830;28;20037;-45
2024/03/18 12:07:35;;;;;;;1.92;0.93;;;6.20;31.30;;;;;;5043573;28;20021;-43
2024/03/18 12:10:04;;;;;;;2.40;1.30;;;6.10;31.20;;;;;;5048662;28;20047;-43
2024/03/18 12:12:34;;;;;;;1.40;0.90;;;6.20;32.30;;;;;;5039563;28;20078;-47
2024/03/18 12:15:01;;;;;;;1.73;1.13;;;6.10;33.10;;;;;;5039506;28;20028;-44
2024/03/18 12:17:27;;;;;;;0.70;0.70;;;6.10;32.60;;;;;;5045769;28;20475;-44
2024/03/18 12:19:54;;;;;;;3.95;0.80;;;6.10;32.90;;;;;;5045389;28;20033;-42
2024/03/18 12:22:23;;;;;;;3.05;1.30;;;6.20;32.80;;;;;;5041361;28;20025;-45
2024/03/18 12:30:19;;;;;;;2.17;1.13;;;6.10;33.20;;;;;;5047614;28;20439;-44
2024/03/18 12:32:51;;;;;;;2.47;1.20;;;6.10;33.70;;;;;;5045529;28;20025;-43
2024/03/18 12:35:19;;;;;;;2.88;0.90;;;5.90;33.50;;;;;;5045615;28;20063;-43
2024/03/18 12:37:50;;;;;;;3.03;1.08;;;5.90;34.00;;;;;;5049354;28;20024;-43
2024/03/18 12:40:16;;;;;;;3.90;1.30;;;6.00;34.30;;;;;;5035225;28;20040;-44
2024/03/18 12:42:46;;;;;;;5.97;1.40;;;6.10;34.10;;;;;;5051068;28;20104;-44
2024/03/18 12:45:12;;;;;;;1.63;1.00;;;6.10;34.50;;;;;;5043193;28;20450;-43
2024/03/18 12:47:38;;;;;;;1.83;1.30;;;6.10;34.10;;;;;;5052531;28;20031;-43
2024/03/18 12:50:05;;;;;;;2.70;1.42;;;6.00;34.60;;;;;;5049272;28;20474;-44
2024/03/18 12:52:32;;;;;;;2.58;1.23;;;6.10;34.70;;;;;;5043236;28;20039;-45